Time;durP1;ratioP1;P1;durP2;ratioP2;P2;SDS_P1;SDS_P2;PMS_P1;PMS_P2;Temp;Humidity;BMP_temperature;BMP_pressure;BME280_temperature;BME280_humidity;BME280_pressure;Samples;Min_cycle;Max_cycle;Signal;HPM_P1;HPM_P2
2021/04/19 05:48:35;;;;;;;53.10;34.83;;;;;;;;;;5361282;23;20100;-69
2021/04/19 05:51:03;;;;;;;71.53;45.17;;;;;;;;;;4915671;29;20131;-63
2021/04/19 05:53:29;;;;;;;74.25;51.80;;;;;;;;;;4915685;29;20051;-66
2021/04/19 05:56:01;;;;;;;57.13;39.78;;;;;;;;;;4915561;29;20463;-64
2021/04/19 05:58:54;;;;;;;53.13;40.10;;;;;;;;;;4898250;29;20055;-69
2021/04/19 06:01:20;;;;;;;;;;;;;;;;;;4895368;29;20426;-69
2021/04/19 06:03:51;;;;;;;49.60;35.13;;;;;;;;;;4896821;29;19907;-66
2021/04/19 06:06:37;;;;;;;58.83;40.53;;;;;;;;;;4896013;29;20028;-64
2021/04/19 06:09:03;;;;;;;50.35;37.45;;;;;;;;;;4909150;29;20039;-68
2021/04/19 06:11:34;;;;;;;52.13;37.00;;;;;;;;;;4914275;29;20426;-68
2021/04/19 06:14:02;;;;;;;53.45;36.70;;;;;;;;;;4913575;29;20044;-68
2021/04/19 06:16:29;;;;;;;55.03;36.63;;;;;;;;;;4917807;29;20050;-66
2021/04/19 06:18:56;;;;;;;49.55;34.97;;;;;;;;;;4932014;29;20028;-66
2021/04/19 06:21:22;;;;;;;46.92;33.95;;;;;;;;;;4934131;29;20027;-66
2021/04/19 06:23:48;;;;;;;46.58;33.92;;;;;;;;;;4929835;29;20079;-65
2021/04/19 06:26:15;;;;;;;49.70;36.33;;;;;;;;;;4914582;29;20032;-67
2021/04/19 06:28:41;;;;;;;54.35;37.40;;;;;;;;;;4917323;29;20155;-69
2021/04/19 06:31:09;;;;;;;56.25;37.72;;;;;;;;;;4933415;29;20067;-61
2021/04/19 06:33:35;;;;;;;53.75;37.75;;;;;;;;;;4933291;29;20080;-60
2021/04/19 06:36:01;;;;;;;53.30;36.10;;;;;;;;;;4933428;29;20028;-67
2021/04/19 06:38:27;;;;;;;53.85;36.30;;;;;;;;;;4933455;29;20051;-64
2021/04/19 06:40:53;;;;;;;51.67;33.60;;;;;;;;;;4932559;29;20023;-62
2021/04/19 06:43:20;;;;;;;51.80;34.53;;;;;;;;;;4931356;29;20023;-64
2021/04/19 06:45:50;;;;;;;51.47;35.65;;;;;;;;;;4933334;29;20095;-64
2021/04/19 06:48:16;;;;;;;46.28;32.40;;;;;;;;;;4928277;29;20079;-69
2021/04/19 06:50:42;;;;;;;52.33;36.75;;;;;;;;;;4933393;29;20513;-63
2021/04/19 06:53:08;;;;;;;46.55;33.20;;;;;;;;;;4925462;29;20056;-65
2021/04/19 06:55:38;;;;;;;42.97;30.73;;;;;;;;;;4912069;29;20016;-60
2021/04/19 06:58:06;;;;;;;46.33;33.08;;;;;;;;;;4897494;29;20137;-64
2021/04/19 07:00:33;;;;;;;42.25;30.60;;;;;;;;;;4896463;29;20028;-67
2021/04/19 07:03:00;;;;;;;41.72;27.58;;;;;;;;;;4916311;29;20032;-60
2021/04/19 07:05:29;;;;;;;35.13;27.02;;;;;;;;;;4913947;29;20040;-67
2021/04/19 07:08:02;;;;;;;42.90;30.30;;;;;;;;;;4912487;29;20017;-67
2021/04/19 07:10:29;;;;;;;41.95;29.67;;;;;;;;;;4911771;29;20043;-70
2021/04/19 07:12:58;;;;;;;44.42;28.30;;;;;;;;;;4896860;29;20072;-63
2021/04/19 07:15:26;;;;;;;40.53;29.17;;;;;;;;;;4922724;29;20047;-66
2021/04/19 07:17:56;;;;;;;38.47;26.92;;;;;;;;;;4914595;29;20027;-70
2021/04/19 07:20:22;;;;;;;36.08;24.52;;;;;;;;;;4898480;29;20072;-70
2021/04/19 07:22:48;;;;;;;38.03;26.33;;;;;;;;;;4917343;29;20024;-61
2021/04/19 07:25:17;;;;;;;40.03;26.63;;;;;;;;;;4917406;29;20075;-69
2021/04/19 07:27:43;;;;;;;24.88;18.65;;;;;;;;;;4914665;29;20036;-71
2021/04/19 07:30:10;;;;;;;24.58;18.63;;;;;;;;;;4917165;29;20037;-71
2021/04/19 07:32:37;;;;;;;29.75;20.92;;;;;;;;;;4917025;29;20512;-72
2021/04/19 07:35:05;;;;;;;27.80;20.27;;;;;;;;;;4917361;29;20491;-62
2021/04/19 07:37:32;;;;;;;31.27;21.15;;;;;;;;;;4900292;29;20032;-73
2021/04/19 07:39:58;;;;;;;32.63;22.27;;;;;;;;;;4899900;29;20087;-69
2021/04/19 07:42:24;;;;;;;31.98;22.33;;;;;;;;;;4916988;29;20090;-76
2021/04/19 07:44:52;;;;;;;31.15;22.80;;;;;;;;;;4914163;29;20081;-67
2021/04/19 07:47:24;;;;;;;30.73;22.35;;;;;;;;;;4912641;29;20042;-68
2021/04/19 07:50:07;;;;;;;37.53;23.65;;;;;;;;;;4916598;29;20060;-61
2021/04/19 07:52:49;;;;;;;28.52;20.88;;;;;;;;;;4916516;29;20028;-69
2021/04/19 07:55:16;;;;;;;30.05;22.02;;;;;;;;;;4915963;29;20044;-68
2021/04/19 07:57:46;;;;;;;34.42;24.05;;;;;;;;;;4915630;29;20388;-63
2021/04/19 08:00:21;;;;;;;32.78;22.90;;;;;;;;;;4914666;29;20058;-60
2021/04/19 08:02:56;;;;;;;30.63;21.67;;;;;;;;;;4916391;29;20083;-68
2021/04/19 08:05:31;;;;;;;27.95;19.73;;;;;;;;;;4916935;29;20403;-70
2021/04/19 08:07:58;;;;;;;28.83;19.80;;;;;;;;;;4915563;29;20039;-60
2021/04/19 08:10:28;;;;;;;32.90;22.05;;;;;;;;;;4916618;29;20075;-62
2021/04/19 08:13:04;;;;;;;31.23;19.23;;;;;;;;;;4914160;29;20060;-62
2021/04/19 08:15:31;;;;;;;31.10;20.35;;;;;;;;;;4916104;29;20024;-66
2021/04/19 08:18:01;;;;;;;25.63;17.58;;;;;;;;;;4916268;29;20083;-66
2021/04/19 08:20:27;;;;;;;23.67;16.20;;;;;;;;;;4915902;29;20380;-63
2021/04/19 08:23:03;;;;;;;21.52;15.45;;;;;;;;;;4916192;29;20547;-68
2021/04/19 08:25:29;;;;;;;22.40;15.68;;;;;;;;;;4924631;29;20024;-69
2021/04/19 08:28:02;;;;;;;22.13;15.32;;;;;;;;;;4916103;29;20063;-69
2021/04/19 08:30:28;;;;;;;19.42;13.55;;;;;;;;;;4915218;29;20020;-69
2021/04/19 08:32:56;;;;;;;18.13;12.20;;;;;;;;;;4915763;29;20055;-60
2021/04/19 08:35:23;;;;;;;16.73;11.98;;;;;;;;;;4916937;29;20055;-68
2021/04/19 08:37:49;;;;;;;18.25;12.82;;;;;;;;;;4916221;29;20099;-69
2021/04/19 08:40:16;;;;;;;20.13;13.57;;;;;;;;;;4916579;29;20074;-67
2021/04/19 08:42:43;;;;;;;21.77;14.13;;;;;;;;;;4916080;29;20392;-70
2021/04/19 08:45:10;;;;;;;17.08;13.23;;;;;;;;;;4898846;29;20028;-70
2021/04/19 08:47:36;;;;;;;17.13;12.70;;;;;;;;;;4911262;29;20267;-66
2021/04/19 08:50:07;;;;;;;20.17;12.77;;;;;;;;;;4913796;29;20072;-70
2021/04/19 08:52:34;;;;;;;21.58;13.95;;;;;;;;;;4916023;29;20032;-68
2021/04/19 08:55:01;;;;;;;21.27;15.25;;;;;;;;;;4915118;29;20511;-66
2021/04/19 08:57:28;;;;;;;24.73;15.77;;;;;;;;;;4916700;29;20099;-65
2021/04/19 08:59:54;;;;;;;20.25;14.27;;;;;;;;;;4915331;29;20088;-70
2021/04/19 09:02:22;;;;;;;23.85;14.70;;;;;;;;;;4915189;29;20483;-67
2021/04/19 09:05:07;;;;;;;23.38;16.40;;;;;;;;;;4916078;29;20108;-70
2021/04/19 09:07:37;;;;;;;23.02;15.77;;;;;;;;;;4915783;29;20478;-70
2021/04/19 09:10:05;;;;;;;22.70;15.55;;;;;;;;;;4914806;29;20034;-69
2021/04/19 09:12:31;;;;;;;24.10;15.93;;;;;;;;;;4898466;29;20048;-68
2021/04/19 09:15:16;;;;;;;26.58;17.98;;;;;;;;;;4915407;29;20029;-72
2021/04/19 09:17:43;;;;;;;27.85;18.20;;;;;;;;;;4913466;29;20028;-68
2021/04/19 09:20:10;;;;;;;24.83;15.57;;;;;;;;;;4915528;29;20044;-64
2021/04/19 09:22:36;;;;;;;19.17;12.65;;;;;;;;;;4915065;29;20480;-65
2021/04/19 09:25:06;;;;;;;19.23;12.68;;;;;;;;;;4898310;29;20491;-64
2021/04/19 09:27:41;;;;;;;19.33;13.80;;;;;;;;;;4915823;29;20039;-70
2021/04/19 09:30:28;;;;;;;40.38;25.33;;;;;;;;;;4915870;29;20035;-60
2021/04/19 09:33:10;;;;;;;32.72;20.02;;;;;;;;;;4915395;29;20043;-64
2021/04/19 09:35:46;;;;;;;44.50;29.60;;;;;;;;;;4924142;29;20027;-70
2021/04/19 09:38:17;;;;;;;35.72;24.35;;;;;;;;;;4932691;29;20111;-64
2021/04/19 09:40:50;;;;;;;46.47;28.27;;;;;;;;;;4916402;29;20028;-67
2021/04/19 09:43:36;;;;;;;41.65;26.70;;;;;;;;;;4933000;29;20041;-69
2021/04/19 09:46:05;;;;;;;47.78;30.40;;;;;;;;;;4933693;29;20375;-72
2021/04/19 09:48:32;;;;;;;38.60;26.00;;;;;;;;;;4933237;29;20048;-70
2021/04/19 09:53:47;;;;;;;30.40;21.23;;;;;;;;;;4916930;29;20082;-70
2021/04/19 09:56:14;;;;;;;29.63;20.17;;;;;;;;;;4933343;29;20024;-63
2021/04/19 09:58:41;;;;;;;29.27;20.70;;;;;;;;;;4933889;29;20110;-70
2021/04/19 10:01:07;;;;;;;32.58;21.95;;;;;;;;;;4933889;29;20046;-62
2021/04/19 10:03:35;;;;;;;29.00;20.38;;;;;;;;;;4933876;29;20059;-64
2021/04/19 10:06:06;;;;;;;23.90;16.45;;;;;;;;;;4933350;29;20039;-70
2021/04/19 10:08:36;;;;;;;31.13;20.90;;;;;;;;;;4932615;29;20082;-64
2021/04/19 10:11:02;;;;;;;35.20;22.23;;;;;;;;;;4932976;29;20030;-66
2021/04/19 10:13:29;;;;;;;25.45;17.60;;;;;;;;;;4933098;29;20043;-65
2021/04/19 10:16:03;;;;;;;20.85;14.32;;;;;;;;;;4933299;29;20047;-70
2021/04/19 10:18:29;;;;;;;24.60;16.88;;;;;;;;;;4916010;29;20063;-65
2021/04/19 10:20:56;;;;;;;19.35;14.38;;;;;;;;;;4898736;29;20037;-66
2021/04/19 10:23:23;;;;;;;22.90;15.15;;;;;;;;;;4904848;29;20044;-63
2021/04/19 10:25:51;;;;;;;20.60;14.15;;;;;;;;;;4905317;29;20047;-66
2021/04/19 10:28:27;;;;;;;20.20;14.70;;;;;;;;;;4924272;29;20497;-62
2021/04/19 10:31:05;;;;;;;27.23;17.38;;;;;;;;;;4921154;29;20036;-68
2021/04/19 10:33:31;;;;;;;25.40;16.08;;;;;;;;;;4903777;29;20099;-71
2021/04/19 10:35:57;;;;;;;26.77;17.50;;;;;;;;;;4923013;29;20349;-64
2021/04/19 10:38:29;;;;;;;22.88;16.38;;;;;;;;;;4923501;29;20031;-63
2021/04/19 10:40:59;;;;;;;23.10;15.75;;;;;;;;;;4922365;29;20024;-67
2021/04/19 10:43:26;;;;;;;22.30;15.68;;;;;;;;;;4920969;29;20032;-69
2021/04/19 10:45:52;;;;;;;29.45;18.50;;;;;;;;;;4922084;29;20024;-61
2021/04/19 10:48:23;;;;;;;24.38;17.45;;;;;;;;;;4904184;29;20538;-60
2021/04/19 10:50:49;;;;;;;22.65;15.25;;;;;;;;;;4902544;29;20126;-66
2021/04/19 10:53:37;;;;;;;25.92;17.63;;;;;;;;;;4914645;29;20518;-62
2021/04/19 10:56:04;;;;;;;29.85;17.60;;;;;;;;;;4918095;29;20162;-61
2021/04/19 10:58:31;;;;;;;26.25;18.05;;;;;;;;;;4898292;29;20792;-66
2021/04/19 11:00:57;;;;;;;28.17;18.55;;;;;;;;;;4917808;29;20027;-73
2021/04/19 11:03:24;;;;;;;25.20;17.25;;;;;;;;;;4901731;29;20110;-81
2021/04/19 11:05:50;;;;;;;29.38;18.10;;;;;;;;;;4901645;29;20032;-69
2021/04/19 11:08:19;;;;;;;32.17;21.42;;;;;;;;;;4917424;29;20111;-72
2021/04/19 11:10:45;;;;;;;69.82;41.70;;;;;;;;;;4918127;29;20028;-61
2021/04/19 11:13:11;;;;;;;39.60;23.02;;;;;;;;;;4916666;29;20044;-81
2021/04/19 11:15:38;;;;;;;27.83;19.20;;;;;;;;;;4916204;29;20032;-76
2021/04/19 11:18:24;;;;;;;43.55;25.50;;;;;;;;;;4899485;29;20035;-62
2021/04/19 11:20:51;;;;;;;50.78;29.23;;;;;;;;;;4904970;29;20167;-79
2021/04/19 11:23:20;;;;;;;34.20;20.95;;;;;;;;;;4916274;29;20066;-73
2021/04/19 11:25:47;;;;;;;55.08;34.47;;;;;;;;;;4899991;29;20055;-81
2021/04/19 11:28:18;;;;;;;41.10;25.23;;;;;;;;;;4915515;29;20028;-79
2021/04/19 11:30:44;;;;;;;22.83;16.77;;;;;;;;;;4917845;29;20055;-76
2021/04/19 11:33:20;;;;;;;26.48;18.75;;;;;;;;;;4897265;29;20051;-83
2021/04/19 11:35:47;;;;;;;23.80;16.52;;;;;;;;;;4916262;29;20027;-71
2021/04/19 11:38:20;;;;;;;29.58;20.63;;;;;;;;;;4899411;29;20028;-60
2021/04/19 11:40:47;;;;;;;26.77;17.50;;;;;;;;;;4916542;29;20512;-64
2021/04/19 11:43:26;;;;;;;23.98;17.80;;;;;;;;;;4900952;29;20458;-77
2021/04/19 11:46:06;;;;;;;25.30;17.75;;;;;;;;;;4918705;29;20032;-60
2021/04/19 11:48:33;;;;;;;30.30;20.70;;;;;;;;;;4900944;29;20048;-74
2021/04/19 11:51:00;;;;;;;36.72;23.48;;;;;;;;;;4921712;29;20028;-71
2021/04/19 11:53:27;;;;;;;33.65;22.52;;;;;;;;;;4922718;29;20048;-65
2021/04/19 11:55:54;;;;;;;24.50;17.30;;;;;;;;;;4900064;29;20463;-61
2021/04/19 11:58:22;;;;;;;32.65;20.45;;;;;;;;;;4899503;29;20040;-67
2021/04/19 12:00:48;;;;;;;25.15;16.55;;;;;;;;;;4916312;29;20024;-73
2021/04/19 12:03:15;;;;;;;25.35;18.38;;;;;;;;;;4917523;29;20028;-75
2021/04/19 12:05:41;;;;;;;28.40;17.98;;;;;;;;;;4916454;29;20024;-82
2021/04/19 12:08:09;;;;;;;22.83;16.27;;;;;;;;;;4917200;29;20367;-66
2021/04/19 12:10:36;;;;;;;25.98;17.35;;;;;;;;;;4901039;29;20028;-66
2021/04/19 12:13:02;;;;;;;27.15;16.65;;;;;;;;;;4927075;29;20050;-78
2021/04/19 12:15:28;;;;;;;20.92;14.88;;;;;;;;;;4915331;29;20028;-63
2021/04/19 12:17:54;;;;;;;22.42;16.48;;;;;;;;;;4916767;29;20032;-82
2021/04/19 12:20:20;;;;;;;19.95;15.02;;;;;;;;;;4914728;29;20032;-67
2021/04/19 12:22:46;;;;;;;22.80;15.60;;;;;;;;;;4915937;29;20475;-65
2021/04/19 12:25:16;;;;;;;21.55;16.15;;;;;;;;;;4900004;29;20468;-63
2021/04/19 12:27:43;;;;;;;21.02;15.13;;;;;;;;;;4899638;29;20566;-66
2021/04/19 12:30:10;;;;;;;26.80;16.33;;;;;;;;;;4925647;29;20040;-66
2021/04/19 12:32:36;;;;;;;20.08;15.30;;;;;;;;;;4916759;29;20032;-68
2021/04/19 12:35:02;;;;;;;22.42;16.42;;;;;;;;;;4899753;29;20454;-69
2021/04/19 12:37:28;;;;;;;23.75;17.35;;;;;;;;;;4916543;29;20467;-70
2021/04/19 12:39:55;;;;;;;24.38;16.38;;;;;;;;;;4916846;29;20033;-62
2021/04/19 12:42:21;;;;;;;24.42;16.50;;;;;;;;;;4916828;29;20028;-67
2021/04/19 12:44:47;;;;;;;20.58;15.80;;;;;;;;;;4899079;29;20028;-63
2021/04/19 12:47:13;;;;;;;23.27;15.93;;;;;;;;;;4916828;29;20047;-63
2021/04/19 12:49:39;;;;;;;21.85;15.82;;;;;;;;;;4921480;29;20067;-71
2021/04/19 12:52:05;;;;;;;23.80;15.80;;;;;;;;;;4922826;29;20092;-65
2021/04/19 12:54:32;;;;;;;25.00;15.43;;;;;;;;;;4915490;29;20084;-64
2021/04/19 12:56:58;;;;;;;28.55;18.50;;;;;;;;;;4917996;29;20032;-72
2021/04/19 12:59:24;;;;;;;23.10;16.77;;;;;;;;;;4926627;29;20562;-73
2021/04/19 13:01:50;;;;;;;30.00;20.00;;;;;;;;;;4923853;29;20028;-67
2021/04/19 13:04:17;;;;;;;24.05;16.80;;;;;;;;;;4925528;29;20034;-82
2021/04/19 13:06:43;;;;;;;20.17;15.77;;;;;;;;;;4925295;29;20099;-74
2021/04/19 13:09:10;;;;;;;21.30;15.93;;;;;;;;;;4927995;29;20039;-68
2021/04/19 13:11:36;;;;;;;21.13;15.07;;;;;;;;;;4934020;29;20020;-69
2021/04/19 13:14:03;;;;;;;23.52;15.60;;;;;;;;;;4934171;29;20078;-59
2021/04/19 13:16:30;;;;;;;25.25;16.30;;;;;;;;;;4934270;29;20040;-69
2021/04/19 13:18:56;;;;;;;24.02;16.55;;;;;;;;;;4916326;29;20043;-69
2021/04/19 13:21:22;;;;;;;24.73;16.25;;;;;;;;;;4932347;29;20047;-74
2021/04/19 13:23:48;;;;;;;30.60;21.35;;;;;;;;;;4934019;29;20387;-65
2021/04/19 13:26:14;;;;;;;20.20;13.35;;;;;;;;;;4913126;29;20024;-62
2021/04/19 13:28:40;;;;;;;18.70;13.60;;;;;;;;;;4933495;29;20027;-72
2021/04/19 13:31:06;;;;;;;17.48;13.50;;;;;;;;;;4933724;29;20051;-71
2021/04/19 13:33:33;;;;;;;19.30;13.30;;;;;;;;;;4933441;29;20118;-70
2021/04/19 13:36:02;;;;;;;19.30;14.50;;;;;;;;;;4933316;29;20035;-71
2021/04/19 13:38:28;;;;;;;20.10;13.80;;;;;;;;;;4928949;29;20443;-72
2021/04/19 13:40:55;;;;;;;18.73;13.13;;;;;;;;;;4934026;29;20035;-66
2021/04/19 13:43:21;;;;;;;18.75;13.45;;;;;;;;;;4933855;29;20028;-73
2021/04/19 13:45:47;;;;;;;19.50;13.40;;;;;;;;;;4920488;29;20031;-72
2021/04/19 13:48:13;;;;;;;17.88;13.57;;;;;;;;;;4914639;29;20167;-63
2021/04/19 13:50:39;;;;;;;17.17;12.57;;;;;;;;;;4914852;29;20028;-62
2021/04/19 13:53:06;;;;;;;17.17;13.10;;;;;;;;;;4914456;29;20104;-72
2021/04/19 13:55:33;;;;;;;24.35;14.82;;;;;;;;;;4915701;29;20036;-66
2021/04/19 13:57:59;;;;;;;16.52;12.88;;;;;;;;;;4914933;29;20479;-70
2021/04/19 14:00:25;;;;;;;18.30;13.40;;;;;;;;;;4914840;29;20024;-71
2021/04/19 14:02:52;;;;;;;17.60;12.75;;;;;;;;;;4914833;29;20099;-60
2021/04/19 14:05:18;;;;;;;22.45;15.00;;;;;;;;;;4915070;29;20031;-69
2021/04/19 14:07:44;;;;;;;20.75;15.07;;;;;;;;;;4914291;29;20359;-77
2021/04/19 14:10:12;;;;;;;16.75;12.45;;;;;;;;;;4897855;29;20043;-70
2021/04/19 14:12:40;;;;;;;17.67;13.52;;;;;;;;;;4914401;29;20054;-69
2021/04/19 14:15:07;;;;;;;20.65;14.15;;;;;;;;;;4915392;29;20024;-74
2021/04/19 14:17:33;;;;;;;18.27;12.85;;;;;;;;;;4915369;29;20028;-67
2021/04/19 14:19:59;;;;;;;18.58;13.77;;;;;;;;;;4914534;29;20502;-71
2021/04/19 14:22:26;;;;;;;19.52;12.65;;;;;;;;;;4914552;29;20043;-64
2021/04/19 14:24:52;;;;;;;17.05;12.88;;;;;;;;;;4915042;29;20031;-76
2021/04/19 14:27:19;;;;;;;25.45;16.17;;;;;;;;;;4914257;29;20027;-70
2021/04/19 14:29:46;;;;;;;43.33;23.63;;;;;;;;;;4914697;29;20043;-62
2021/04/19 14:32:13;;;;;;;31.77;19.98;;;;;;;;;;4914991;29;20080;-67
2021/04/19 14:34:39;;;;;;;24.27;15.63;;;;;;;;;;4914100;29;20183;-78
2021/04/19 14:37:05;;;;;;;10.15;8.35;;;;;;;;;;4897905;29;20140;-72
2021/04/19 14:39:31;;;;;;;12.40;9.27;;;;;;;;;;4914220;29;20035;-72
2021/04/19 14:41:58;;;;;;;10.38;8.13;;;;;;;;;;4914555;29;20050;-66
2021/04/19 14:44:25;;;;;;;11.77;7.72;;;;;;;;;;4914446;29;20051;-66
2021/04/19 14:46:51;;;;;;;12.35;8.88;;;;;;;;;;4914575;29;20135;-71
2021/04/19 14:49:20;;;;;;;8.75;7.10;;;;;;;;;;4897032;29;20143;-67
2021/04/19 14:51:46;;;;;;;13.10;9.75;;;;;;;;;;4914578;29;20043;-71
2021/04/19 14:54:13;;;;;;;9.90;7.90;;;;;;;;;;4914832;29;20064;-59
2021/04/19 14:56:39;;;;;;;10.13;8.32;;;;;;;;;;4914165;29;20032;-76
2021/04/19 14:59:10;;;;;;;13.35;8.93;;;;;;;;;;4914368;29;20036;-63
2021/04/19 15:01:36;;;;;;;19.10;12.40;;;;;;;;;;4914202;29;20024;-61
2021/04/19 15:04:02;;;;;;;22.95;15.07;;;;;;;;;;4928357;29;20107;-73
2021/04/19 15:06:28;;;;;;;13.57;9.23;;;;;;;;;;4932733;29;20027;-75
2021/04/19 15:08:55;;;;;;;18.35;13.40;;;;;;;;;;4915784;29;20035;-69
2021/04/19 15:11:21;;;;;;;17.25;11.20;;;;;;;;;;4933184;29;20048;-69
2021/04/19 15:13:47;;;;;;;16.48;11.70;;;;;;;;;;4933114;29;20036;-73
2021/04/19 15:16:13;;;;;;;17.38;12.10;;;;;;;;;;4933389;29;20506;-78
2021/04/19 15:18:39;;;;;;;18.98;12.93;;;;;;;;;;4932964;29;20034;-69
2021/04/19 15:21:06;;;;;;;20.40;13.02;;;;;;;;;;4920291;29;20043;-68
2021/04/19 15:23:33;;;;;;;20.08;13.77;;;;;;;;;;4932076;29;20067;-70
2021/04/19 15:25:59;;;;;;;19.20;14.05;;;;;;;;;;4931664;29;20028;-70
2021/04/19 15:28:25;;;;;;;18.17;13.20;;;;;;;;;;4929453;29;20028;-77
2021/04/19 15:30:55;;;;;;;15.82;12.35;;;;;;;;;;4931365;29;20032;-68
2021/04/19 15:33:21;;;;;;;19.95;13.73;;;;;;;;;;4914450;29;20043;-79
2021/04/19 15:35:47;;;;;;;19.70;14.30;;;;;;;;;;4914454;29;20475;-70
2021/04/19 15:38:13;;;;;;;18.75;12.85;;;;;;;;;;4933197;29;20111;-72
2021/04/19 15:40:40;;;;;;;19.17;13.65;;;;;;;;;;4935412;29;20031;-74
2021/04/19 15:43:06;;;;;;;18.15;12.27;;;;;;;;;;4935273;29;20040;-64
2021/04/19 15:45:32;;;;;;;20.55;13.75;;;;;;;;;;4931136;29;20028;-68
2021/04/19 15:47:58;;;;;;;18.90;13.35;;;;;;;;;;4935844;29;20360;-69
2021/04/19 15:50:24;;;;;;;18.05;12.90;;;;;;;;;;4935746;29;20451;-72
2021/04/19 15:52:50;;;;;;;22.17;14.25;;;;;;;;;;4935955;29;20040;-64
2021/04/19 15:55:18;;;;;;;19.58;14.43;;;;;;;;;;4936251;29;20178;-70
2021/04/19 15:57:44;;;;;;;19.67;13.88;;;;;;;;;;4936019;29;20020;-65
2021/04/19 16:00:10;;;;;;;16.70;12.50;;;;;;;;;;4936271;29;20036;-61
2021/04/19 16:02:37;;;;;;;18.52;13.10;;;;;;;;;;4936096;29;20027;-67
2021/04/19 16:05:03;;;;;;;19.13;12.88;;;;;;;;;;4936486;29;20375;-60
2021/04/19 16:07:29;;;;;;;22.42;13.32;;;;;;;;;;4935989;29;20032;-65
2021/04/19 16:09:55;;;;;;;20.98;14.30;;;;;;;;;;4936080;29;20042;-69
2021/04/19 16:12:21;;;;;;;20.80;13.35;;;;;;;;;;4935453;29;20023;-65
2021/04/19 16:14:47;;;;;;;25.15;15.95;;;;;;;;;;4935810;29;20057;-72
2021/04/19 16:17:13;;;;;;;25.52;15.82;;;;;;;;;;4934387;29;20027;-62
2021/04/19 16:19:40;;;;;;;31.67;18.52;;;;;;;;;;4935822;29;20042;-61
2021/04/19 16:22:06;;;;;;;31.17;19.63;;;;;;;;;;4919185;29;20036;-66
2021/04/19 16:24:32;;;;;;;28.60;16.08;;;;;;;;;;4935875;29;20024;-63
2021/04/19 16:26:59;;;;;;;23.52;14.98;;;;;;;;;;4934369;29;20487;-63
2021/04/19 16:29:26;;;;;;;21.05;15.23;;;;;;;;;;4935025;29;20470;-69
2021/04/19 16:31:52;;;;;;;21.52;15.10;;;;;;;;;;4933037;29;20031;-69
2021/04/19 16:34:21;;;;;;;18.25;13.63;;;;;;;;;;4927517;29;20050;-65
2021/04/19 16:36:48;;;;;;;19.20;14.02;;;;;;;;;;4920197;29;20020;-73
2021/04/19 16:39:15;;;;;;;24.83;17.00;;;;;;;;;;4916487;29;20047;-59
2021/04/19 16:41:42;;;;;;;22.40;15.30;;;;;;;;;;4916095;29;20035;-61
2021/04/19 16:44:08;;;;;;;23.35;15.63;;;;;;;;;;4916017;29;20054;-65
2021/04/19 16:46:34;;;;;;;23.67;16.60;;;;;;;;;;4898809;29;20111;-60
2021/04/19 16:49:00;;;;;;;19.67;14.23;;;;;;;;;;4914578;29;20063;-62
2021/04/19 16:51:26;;;;;;;25.95;17.35;;;;;;;;;;4914640;29;20088;-69
2021/04/19 16:53:52;;;;;;;17.75;12.68;;;;;;;;;;4915533;29;20120;-70
2021/04/19 16:56:19;;;;;;;18.20;12.25;;;;;;;;;;4915970;29;20020;-71
2021/04/19 16:58:45;;;;;;;20.33;13.98;;;;;;;;;;4915110;29;20074;-66
2021/04/19 17:01:11;;;;;;;20.33;14.70;;;;;;;;;;4915437;29;20020;-73
2021/04/19 17:03:43;;;;;;;22.08;15.25;;;;;;;;;;4916695;29;20388;-70
2021/04/19 17:06:09;;;;;;;;;;;;;;;;;;4916697;29;20032;-66
2021/04/19 17:08:35;;;;;;;25.45;16.23;;;;;;;;;;4915108;29;19911;-69
2021/04/19 17:11:01;;;;;;;19.70;14.20;;;;;;;;;;4898691;29;20114;-73
2021/04/19 17:13:28;;;;;;;24.80;15.57;;;;;;;;;;4915634;29;20051;-72
2021/04/19 17:15:54;;;;;;;21.10;14.18;;;;;;;;;;4915752;29;20506;-70
2021/04/19 17:18:20;;;;;;;16.98;12.23;;;;;;;;;;4916029;29;20507;-68
2021/04/19 17:20:46;;;;;;;16.80;11.70;;;;;;;;;;4915181;29;20028;-68
2021/04/19 17:23:12;;;;;;;15.60;11.20;;;;;;;;;;4915470;29;20107;-71
2021/04/19 17:25:38;;;;;;;15.82;10.77;;;;;;;;;;4915959;29;20028;-62
2021/04/19 17:28:05;;;;;;;16.67;11.60;;;;;;;;;;4915675;29;20032;-68
2021/04/19 17:30:31;;;;;;;15.75;11.52;;;;;;;;;;4915522;29;20052;-63
2021/04/19 17:32:57;;;;;;;16.50;12.18;;;;;;;;;;4898697;29;20052;-66
2021/04/19 17:35:24;;;;;;;16.67;12.27;;;;;;;;;;4915033;29;20028;-63
2021/04/19 17:37:51;;;;;;;18.70;13.38;;;;;;;;;;4915806;29;20091;-67
2021/04/19 17:40:17;;;;;;;20.42;13.80;;;;;;;;;;4912022;29;20479;-66
2021/04/19 17:42:43;;;;;;;21.15;13.77;;;;;;;;;;4892899;29;20028;-70
2021/04/19 17:45:10;;;;;;;21.55;14.35;;;;;;;;;;4918879;29;20032;-62
2021/04/19 17:47:37;;;;;;;26.17;15.23;;;;;;;;;;4922934;29;20028;-73
2021/04/19 17:50:07;;;;;;;22.35;13.55;;;;;;;;;;4926678;29;20083;-67
2021/04/19 17:52:33;;;;;;;25.80;17.48;;;;;;;;;;4932582;29;20881;-68
2021/04/19 17:55:00;;;;;;;22.25;14.30;;;;;;;;;;4933352;29;20044;-70
2021/04/19 17:57:26;;;;;;;25.77;15.05;;;;;;;;;;4932730;29;20030;-65
2021/04/19 17:59:52;;;;;;;20.83;13.40;;;;;;;;;;4933177;29;20023;-68
2021/04/19 18:02:19;;;;;;;19.80;14.20;;;;;;;;;;4930485;29;20110;-69
2021/04/19 18:04:45;;;;;;;23.25;15.63;;;;;;;;;;4924875;29;20078;-64
2021/04/19 18:07:13;;;;;;;20.75;13.98;;;;;;;;;;4932527;29;20390;-71
2021/04/19 18:09:39;;;;;;;20.98;15.02;;;;;;;;;;4932420;29;20028;-71
2021/04/19 18:12:06;;;;;;;20.20;14.18;;;;;;;;;;4932299;29;20085;-69
2021/04/19 18:14:33;;;;;;;25.15;17.13;;;;;;;;;;4933418;29;20042;-64
2021/04/19 18:17:00;;;;;;;20.75;13.98;;;;;;;;;;4932820;29;20039;-66
2021/04/19 18:19:27;;;;;;;22.00;15.07;;;;;;;;;;4932665;29;20143;-62
2021/04/19 18:21:53;;;;;;;21.33;15.05;;;;;;;;;;4933257;29;20636;-70
2021/04/19 18:24:20;;;;;;;21.13;14.27;;;;;;;;;;4932849;29;20116;-65
2021/04/19 18:26:50;;;;;;;27.50;17.98;;;;;;;;;;4932283;29;20023;-65
2021/04/19 18:29:22;;;;;;;26.83;17.77;;;;;;;;;;4933084;29;20028;-70
2021/04/19 18:31:49;;;;;;;31.17;18.80;;;;;;;;;;4895026;29;20578;-66
2021/04/19 18:34:15;;;;;;;28.33;19.35;;;;;;;;;;4895057;29;20033;-69
2021/04/19 18:36:42;;;;;;;27.33;18.80;;;;;;;;;;4895208;29;20025;-68
2021/04/19 18:39:10;;;;;;;30.42;18.23;;;;;;;;;;4895084;29;20037;-70
2021/04/19 18:41:36;;;;;;;26.92;18.50;;;;;;;;;;4878088;29;20025;-70
2021/04/19 18:44:03;;;;;;;24.55;16.75;;;;;;;;;;4894955;29;20032;-71
2021/04/19 18:46:29;;;;;;;25.00;16.13;;;;;;;;;;4894667;29;20048;-64
2021/04/19 18:48:56;;;;;;;27.35;18.25;;;;;;;;;;4894283;29;20539;-70
2021/04/19 18:51:23;;;;;;;29.75;19.45;;;;;;;;;;4911098;29;20111;-67
2021/04/19 18:53:52;;;;;;;30.48;19.42;;;;;;;;;;4931093;29;20062;-67
2021/04/19 18:56:20;;;;;;;33.08;20.30;;;;;;;;;;4913796;29;20031;-73
2021/04/19 18:58:46;;;;;;;28.50;18.58;;;;;;;;;;4927225;29;20024;-71
2021/04/19 19:01:12;;;;;;;34.28;21.30;;;;;;;;;;4932012;29;20031;-69
2021/04/19 19:03:38;;;;;;;33.42;23.02;;;;;;;;;;4931761;29;20038;-64
2021/04/19 19:06:05;;;;;;;34.55;22.60;;;;;;;;;;4931486;29;20634;-70
2021/04/19 19:08:31;;;;;;;41.28;24.17;;;;;;;;;;4932047;29;20075;-70
2021/04/19 19:10:57;;;;;;;40.08;23.67;;;;;;;;;;4925818;29;20071;-71
2021/04/19 19:13:23;;;;;;;33.00;22.00;;;;;;;;;;4929236;29;20036;-68
2021/04/19 19:15:49;;;;;;;28.02;17.98;;;;;;;;;;4934790;29;20027;-71
2021/04/19 19:18:16;;;;;;;28.50;18.27;;;;;;;;;;4935669;29;20032;-62
2021/04/19 19:20:42;;;;;;;33.45;21.10;;;;;;;;;;4935025;29;20031;-66
2021/04/19 19:23:08;;;;;;;31.92;20.33;;;;;;;;;;4935669;29;20020;-65
2021/04/19 19:25:34;;;;;;;28.83;18.88;;;;;;;;;;4935095;29;20031;-71
2021/04/19 19:28:00;;;;;;;31.70;20.55;;;;;;;;;;4935372;29;20416;-69
2021/04/19 19:30:27;;;;;;;32.75;20.13;;;;;;;;;;4936146;29;20396;-75
2021/04/19 19:32:53;;;;;;;31.45;18.27;;;;;;;;;;4934767;29;20045;-73
2021/04/19 19:35:19;;;;;;;29.80;18.27;;;;;;;;;;4935637;29;20052;-71
2021/04/19 19:37:45;;;;;;;26.52;16.95;;;;;;;;;;4935483;29;20107;-70
2021/04/19 19:40:12;;;;;;;26.38;17.48;;;;;;;;;;4935720;29;20043;-66
2021/04/19 19:42:38;;;;;;;23.08;16.52;;;;;;;;;;4934912;29;20387;-70
2021/04/19 19:45:06;;;;;;;25.70;17.45;;;;;;;;;;4935896;29;20036;-73
2021/04/19 19:47:32;;;;;;;25.65;16.73;;;;;;;;;;4935755;29;20033;-67
2021/04/19 19:49:58;;;;;;;25.67;17.33;;;;;;;;;;4934517;29;20078;-70
2021/04/19 19:52:24;;;;;;;27.88;18.30;;;;;;;;;;4935598;29;20032;-70
2021/04/19 19:54:50;;;;;;;28.48;17.95;;;;;;;;;;4935113;29;20048;-69
2021/04/19 19:57:16;;;;;;;27.88;18.20;;;;;;;;;;4935200;29;20024;-67
2021/04/19 19:59:42;;;;;;;26.35;17.67;;;;;;;;;;4935301;29;20036;-68
2021/04/19 20:02:11;;;;;;;25.63;16.15;;;;;;;;;;4934968;29;20032;-65
2021/04/19 20:04:37;;;;;;;26.83;16.20;;;;;;;;;;4935466;29;20034;-67
2021/04/19 20:07:05;;;;;;;27.60;17.27;;;;;;;;;;4935164;29;20024;-67
2021/04/19 20:09:31;;;;;;;26.48;17.25;;;;;;;;;;4934783;29;20032;-67
2021/04/19 20:11:57;;;;;;;50.42;25.70;;;;;;;;;;4934613;29;20026;-69